Time;durP1;ratioP1;P1;durP2;ratioP2;P2;SDS_P1;SDS_P2;PMS_P1;PMS_P2;Temp;Humidity;BMP_temperature;BMP_pressure;BME280_temperature;BME280_humidity;BME280_pressure;Samples;Min_cycle;Max_cycle;Signal;HPM_P1;HPM_P2
2021/09/20 00:00:18;;;;;;;;;3.00;2.00;;;;;17.56;75.71;101492.22;4996537;28;45420;-71
2021/09/20 00:02:45;;;;;;;;;1.25;0.50;;;;;17.55;74.78;101501.13;4982617;28;45464;-71
2021/09/20 00:05:11;;;;;;;;;3.00;0.75;;;;;17.49;76.09;101493.53;4988572;28;47830;-72
2021/09/20 00:07:37;;;;;;;;;1.50;1.50;;;;;17.47;75.86;101490.94;4993343;28;45293;-72
2021/09/20 00:10:05;;;;;;;;;1.00;1.00;;;;;17.44;75.24;101487.63;4997274;28;45502;-72
2021/09/20 00:12:31;;;;;;;;;1.25;1.00;;;;;17.38;75.97;101494.19;4983095;28;45389;-72
2021/09/20 00:14:56;;;;;;;;;2.75;2.75;;;;;17.37;76.50;101491.59;4986701;28;46344;-71
2021/09/20 00:17:21;;;;;;;;;1.50;1.00;;;;;17.35;76.30;101493.50;4986957;28;45515;-72
2021/09/20 00:19:47;;;;;;;;;3.00;1.50;;;;;17.33;76.94;101480.31;4985545;28;45384;-72
2021/09/20 00:22:12;;;;;;;;;1.50;1.25;;;;;17.38;76.71;101487.97;4995785;28;45806;-72
2021/09/20 00:24:37;;;;;;;;;0.75;0.00;;;;;17.38;76.42;101488.88;4981244;28;46574;-71
2021/09/20 00:27:06;;;;;;;;;1.25;1.00;;;;;17.39;77.02;101489.72;4993662;28;45408;-71
2021/09/20 00:29:32;;;;;;;;;2.50;0.75;;;;;17.37;76.50;101487.13;4984815;28;45475;-72
2021/09/20 00:31:57;;;;;;;;;1.00;1.00;;;;;17.38;76.09;101485.31;4988153;28;45443;-71
2021/09/20 00:34:22;;;;;;;;;1.00;1.00;;;;;17.37;76.44;101491.59;4982552;28;45413;-72
2021/09/20 00:36:48;;;;;;;;;3.00;2.00;;;;;17.29;77.22;101478.78;4986306;28;46090;-72
2021/09/20 00:39:13;;;;;;;;;3.00;2.25;;;;;17.37;77.08;101492.44;4991401;28;51970;-72
2021/09/20 00:41:39;;;;;;;;;1.50;1.50;;;;;17.37;77.32;101494.25;4992500;28;45542;-72
2021/09/20 00:44:04;;;;;;;;;2.50;1.00;;;;;17.42;77.62;101498.34;4992407;28;46625;-72
2021/09/20 00:46:29;;;;;;;;;2.25;1.75;;;;;17.41;77.10;101493.97;4992709;28;45639;-72
2021/09/20 00:48:55;;;;;;;;;2.00;2.00;;;;;17.42;77.14;101494.81;4996572;28;45499;-72
2021/09/20 00:51:20;;;;;;;;;2.50;2.00;;;;;17.39;76.75;101492.38;4994168;28;45476;-72
2021/09/20 00:53:46;;;;;;;;;1.00;1.00;;;;;17.37;77.35;101491.59;4990443;28;46010;-71
2021/09/20 00:56:11;;;;;;;;;3.50;1.00;;;;;17.28;77.04;101469.09;5000754;28;45383;-72
2021/09/20 00:58:36;;;;;;;;;1.75;0.75;;;;;17.38;77.03;101498.59;4984033;28;45626;-72
2021/09/20 01:01:02;;;;;;;;;3.00;2.00;;;;;17.36;77.24;101497.84;5002567;28;45307;-72
2021/09/20 01:03:29;;;;;;;;;2.00;2.00;;;;;17.31;76.98;101481.34;4981072;28;47108;-71
2021/09/20 01:05:54;;;;;;;;;1.00;1.00;;;;;17.32;77.17;101496.31;4990410;28;45830;-71
2021/09/20 01:08:19;;;;;;;;;4.00;1.50;;;;;17.28;77.50;101493.00;4992052;28;45579;-72
2021/09/20 01:10:45;;;;;;;;;1.00;1.00;;;;;17.31;77.41;101492.81;4992396;28;45374;-72
2021/09/20 01:13:10;;;;;;;;;3.00;0.50;;;;;17.32;77.38;101496.31;4981262;28;46537;-72
2021/09/20 01:15:35;;;;;;;;;3.50;1.50;;;;;17.30;77.46;101487.59;4994717;28;45650;-72
2021/09/20 01:18:02;;;;;;;;;1.75;1.75;;;;;17.32;77.70;101488.34;4990101;28;45506;-72
2021/09/20 01:20:27;;;;;;;;;2.50;1.00;;;;;17.32;77.57;101489.19;4992493;28;45499;-71
2021/09/20 01:23:00;;;;;;;;;1.75;1.75;;;;;17.32;77.89;101483.88;4992054;28;45632;-72
2021/09/20 01:25:26;;;;;;;;;2.00;2.00;;;;;17.35;77.93;101482.88;4987822;28;45835;-72
2021/09/20 01:27:51;;;;;;;;;2.50;1.00;;;;;17.37;77.73;101473.84;4981484;28;45428;-72
2021/09/20 01:30:16;;;;;;;;;4.00;2.00;;;;;17.39;77.83;101479.09;4991117;28;45483;-72
2021/09/20 01:32:42;;;;;;;;;1.50;1.00;;;;;17.38;77.74;101474.69;4988404;28;46363;-72
2021/09/20 01:35:08;;;;;;;;;2.25;1.75;;;;;17.37;77.85;101473.00;4987930;28;45451;-71
2021/09/20 01:37:33;;;;;;;;;1.00;1.00;;;;;17.26;77.73;101457.69;4991696;28;45384;-72
2021/09/20 01:39:58;;;;;;;;;3.25;2.00;;;;;17.34;77.98;101471.38;4993737;28;45327;-71
2021/09/20 01:42:24;;;;;;;;;1.25;1.25;;;;;17.36;78.24;101477.44;4979155;28;46729;-71
2021/09/20 01:44:49;;;;;;;;;1.75;1.75;;;;;17.33;78.01;101467.03;4984540;28;45316;-72
2021/09/20 01:47:14;;;;;;;;;1.00;1.00;;;;;17.26;78.38;101452.38;4988070;28;47940;-72
2021/09/20 01:49:39;;;;;;;;;2.00;2.00;;;;;17.38;77.90;101474.69;4987603;28;45610;-71
2021/09/20 01:52:05;;;;;;;;;2.75;0.75;;;;;17.33;78.14;101468.78;4981411;28;46307;-71
2021/09/20 01:54:30;;;;;;;;;1.00;1.00;;;;;17.39;77.99;101474.63;4980134;28;45498;-72
2021/09/20 01:56:56;;;;;;;;;0.50;0.50;;;;;17.39;77.95;101466.66;4992188;28;45483;-72
2021/09/20 01:59:22;;;;;;;;;1.00;1.00;;;;;17.38;78.36;101475.56;4992685;28;45365;-72
2021/09/20 02:01:47;;;;;;;;;2.00;2.00;;;;;17.41;78.25;101474.53;4992757;28;46671;-72
2021/09/20 02:04:13;;;;;;;;;2.00;2.00;;;;;17.42;78.29;101476.22;4994972;28;45409;-72
2021/09/20 02:06:38;;;;;;;;;2.50;1.50;;;;;17.31;78.26;101454.75;4980569;28;45606;-71
2021/09/20 02:09:06;;;;;;;;;1.75;1.75;;;;;17.40;78.24;101471.00;4991510;28;45388;-72
2021/09/20 02:11:32;;;;;;;;;3.50;1.50;;;;;17.39;78.72;101463.16;4991443;28;45468;-71
2021/09/20 02:13:58;;;;;;;;;3.00;2.00;;;;;17.41;78.37;101464.75;4991906;28;45628;-71
2021/09/20 02:16:23;;;;;;;;;3.50;2.75;;;;;17.40;78.67;101460.38;4991324;28;45442;-72
2021/09/20 02:18:48;;;;;;;;;4.50;3.00;;;;;17.31;78.71;101442.34;4996037;28;45491;-71
2021/09/20 02:21:14;;;;;;;;;3.75;3.75;;;;;17.40;78.72;101455.06;4985674;28;46568;-71
2021/09/20 02:23:40;;;;;;;;;3.50;3.00;;;;;17.42;78.34;101457.63;4979291;28;45425;-72
2021/09/20 02:26:05;;;;;;;;;6.00;3.75;;;;;17.41;78.61;101448.81;4986541;28;45459;-72
2021/09/20 02:28:31;;;;;;;;;2.25;2.00;;;;;17.41;78.54;101456.78;4981627;28;46735;-72
2021/09/20 02:30:57;;;;;;;;;3.00;3.00;;;;;17.40;78.64;101456.88;4994089;28;45468;-71
2021/09/20 02:33:24;;;;;;;;;4.75;2.00;;;;;17.39;78.70;101455.19;4980230;28;45588;-71
2021/09/20 02:35:49;;;;;;;;;3.00;3.00;;;;;17.37;79.63;101452.59;4989558;28;45587;-72
2021/09/20 02:38:15;;;;;;;;;4.25;3.00;;;;;17.34;78.48;101450.13;4987838;28;45455;-72
2021/09/20 02:40:40;;;;;;;;;4.00;3.00;;;;;17.33;78.47;101450.19;4980814;28;46719;-72
2021/09/20 02:43:06;;;;;;;;;3.75;3.00;;;;;17.31;78.74;101455.63;4980952;28;45388;-71
2021/09/20 02:45:31;;;;;;;;;4.00;3.75;;;;;17.30;78.40;101453.06;4987665;28;45392;-72
2021/09/20 02:47:57;;;;;;;;;3.00;1.75;;;;;17.30;78.86;101448.59;4991200;28;45643;-72
2021/09/20 02:50:22;;;;;;;;;3.50;3.00;;;;;17.28;78.56;101450.50;4990591;28;45398;-71
2021/09/20 02:52:48;;;;;;;;;3.00;3.00;;;;;17.28;79.33;101455.81;4989396;28;45594;-71
2021/09/20 02:55:13;;;;;;;;;4.00;2.00;;;;;17.27;79.21;101462.06;4991614;28;45434;-71
2021/09/20 02:57:40;;;;;;;;;2.50;2.00;;;;;17.29;78.55;101448.69;4992803;28;45348;-72
2021/09/20 03:00:10;;;;;;;;;3.75;3.00;;;;;17.30;78.81;101461.03;4981796;28;46154;-72
2021/09/20 03:02:35;;;;;;;;;5.75;3.00;;;;;17.30;78.65;101461.03;4980366;28;45407;-72
2021/09/20 03:05:01;;;;;;;;;2.25;2.25;;;;;17.29;78.80;101454.88;4984718;28;45546;-72
2021/09/20 03:07:26;;;;;;;;;3.25;2.00;;;;;17.29;78.55;101456.66;4982030;28;45491;-71
2021/09/20 03:09:51;;;;;;;;;3.25;3.00;;;;;17.31;78.54;101457.41;4983000;28;47506;-71
2021/09/20 03:12:17;;;;;;;;;5.00;2.00;;;;;17.29;78.64;101456.66;4991820;28;45427;-72
2021/09/20 03:14:42;;;;;;;;;2.00;2.00;;;;;17.29;78.54;101457.53;4988202;28;50406;-72
2021/09/20 03:17:07;;;;;;;;;4.25;3.00;;;;;17.28;79.34;101458.47;4986491;28;45522;-71
2021/09/20 03:19:33;;;;;;;;;7.75;3.00;;;;;17.29;79.23;101457.53;4988910;28;51915;-72
2021/09/20 03:21:58;;;;;;;;;2.00;2.00;;;;;17.18;78.74;101436.91;4978692;28;45462;-71
2021/09/20 03:24:24;;;;;;;;;5.75;2.00;;;;;17.30;78.80;101461.03;4991675;28;45941;-72
2021/09/20 03:26:50;;;;;;;;;5.00;2.25;;;;;17.27;79.07;101462.06;4982888;28;45532;-72
2021/09/20 03:29:15;;;;;;;;;2.25;2.25;;;;;17.27;79.37;101470.03;5002011;28;48381;-71
2021/09/20 03:31:41;;;;;;;;;5.00;3.75;;;;;17.27;79.07;101469.16;4988265;28;45499;-72
2021/09/20 03:34:07;;;;;;;;;4.00;3.00;;;;;17.25;79.00;101463.97;4983554;28;45554;-71
2021/09/20 03:36:32;;;;;;;;;4.50;4.50;;;;;17.25;79.11;101469.28;4991325;28;45399;-71
2021/09/20 03:38:58;;;;;;;;;4.00;3.50;;;;;17.27;79.87;101470.03;4990588;28;46131;-71
2021/09/20 03:41:23;;;;;;;;;2.50;2.50;;;;;17.24;79.45;101466.72;4984765;28;45611;-71
2021/09/20 03:43:49;;;;;;;;;4.00;4.00;;;;;17.22;79.52;101464.13;4982915;28;47225;-71
2021/09/20 03:46:14;;;;;;;;;3.50;3.50;;;;;17.23;79.35;101471.16;4991210;28;45434;-71
2021/09/20 03:48:40;;;;;;;;;5.00;3.50;;;;;17.21;79.51;101459.75;4992607;28;45490;-72
2021/09/20 03:51:06;;;;;;;;;3.00;3.00;;;;;17.25;79.63;101468.41;4990384;28;45392;-71
2021/09/20 03:53:33;;;;;;;;;4.00;3.00;;;;;17.28;79.81;101462.91;4992159;28;45550;-72
2021/09/20 03:55:58;;;;;;;;;3.00;3.00;;;;;17.25;79.12;101463.09;4989970;28;45534;-72
2021/09/20 03:58:24;;;;;;;;;3.00;2.50;;;;;17.26;79.58;101462.16;4989948;28;46339;-71
2021/09/20 04:00:49;;;;;;;;;3.50;3.25;;;;;17.26;79.55;101476.28;4991034;28;45568;-72
2021/09/20 04:03:14;;;;;;;;;4.75;4.75;;;;;17.23;79.64;101460.53;4987406;28;45389;-72
2021/09/20 04:05:40;;;;;;;;;5.25;4.00;;;;;17.25;79.85;101476.38;4981331;28;46285;-71
2021/09/20 04:08:05;;;;;;;;;4.00;4.00;;;;;17.24;79.89;101464.91;4984215;28;46434;-72
2021/09/20 04:10:30;;;;;;;;;5.50;5.00;;;;;17.30;79.99;101474.31;4989830;28;45609;-72
2021/09/20 04:12:56;;;;;;;;;3.50;3.50;;;;;17.30;79.94;101469.00;4993504;28;45276;-71
2021/09/20 04:15:21;;;;;;;;;5.00;4.00;;;;;17.33;80.11;101469.69;4978666;28;45300;-72
2021/09/20 04:17:46;;;;;;;;;4.50;4.00;;;;;17.32;80.18;101467.94;4982834;28;46086;-71
2021/09/20 04:20:13;;;;;;;;;5.25;4.00;;;;;17.36;79.91;101472.13;4984917;28;46851;-72
2021/09/20 04:22:39;;;;;;;;;6.75;5.00;;;;;17.24;80.02;101454.28;4987014;28;45504;-71
2021/09/20 04:25:06;;;;;;;;;6.50;4.75;;;;;17.40;79.78;101476.31;4989548;28;45414;-71
2021/09/20 04:27:31;;;;;;;;;6.75;4.25;;;;;17.40;80.24;101472.81;4978299;28;46466;-71
2021/09/20 04:29:57;;;;;;;;;7.00;4.25;;;;;17.44;80.33;101477.88;4977098;28;45293;-71
2021/09/20 04:32:23;;;;;;;;;8.00;4.00;;;;;17.45;80.54;101474.25;4986319;28;45447;-72
2021/09/20 04:34:49;;;;;;;;;5.00;5.00;;;;;17.46;80.07;101475.09;4986645;28;45503;-71
2021/09/20 04:37:16;;;;;;;;;6.75;5.50;;;;;17.47;80.06;101477.66;4980592;28;45575;-71
2021/09/20 04:39:41;;;;;;;;;6.50;5.00;;;;;17.47;80.02;101476.81;4986352;28;45404;-71
2021/09/20 04:42:07;;;;;;;;;5.25;5.25;;;;;17.44;80.23;101477.00;4978325;28;45654;-72
2021/09/20 04:44:32;;;;;;;;;6.75;3.75;;;;;17.47;80.37;101477.66;4982564;28;45507;-71
2021/09/20 04:46:57;;;;;;;;;5.00;4.25;;;;;17.49;80.43;101477.59;4986172;28;46731;-71
2021/09/20 04:49:23;;;;;;;;;8.00;6.00;;;;;17.47;80.18;101475.00;4992695;28;53511;-71
2021/09/20 04:51:48;;;;;;;;;5.00;5.00;;;;;17.48;79.96;101484.69;4983348;28;45361;-71
2021/09/20 04:54:13;;;;;;;;;8.75;6.00;;;;;17.49;80.18;101477.59;4991369;28;45537;-71
2021/09/20 04:56:39;;;;;;;;;5.75;5.00;;;;;17.49;80.50;101480.25;5006357;28;46550;-72
2021/09/20 04:59:04;;;;;;;;;6.00;6.00;;;;;17.50;80.38;101478.44;4988796;28;45670;-71
2021/09/20 05:01:30;;;;;;;;;9.50;7.75;;;;;17.50;80.68;101481.09;4982907;28;45457;-71
2021/09/20 05:03:55;;;;;;;;;5.25;5.25;;;;;17.50;80.66;101489.06;4995505;28;45240;-72
2021/09/20 05:06:20;;;;;;;;;6.75;5.25;;;;;17.46;80.20;101480.41;4993232;28;45694;-71
2021/09/20 05:08:46;;;;;;;;;6.00;5.25;;;;;17.45;80.30;101478.72;4993019;28;45582;-71
2021/09/20 05:11:11;;;;;;;;;7.75;6.00;;;;;17.41;80.74;101480.69;4988749;28;45317;-71
2021/09/20 05:13:37;;;;;;;;;7.00;6.00;;;;;17.39;80.54;101490.56;4982208;28;45490;-72
2021/09/20 05:16:02;;;;;;;;;8.25;6.50;;;;;17.32;80.24;101478.56;4993576;28;46546;-71
2021/09/20 05:18:27;;;;;;;;;6.00;6.00;;;;;17.32;80.52;101491.00;4993287;28;45492;-71
2021/09/20 05:20:53;;;;;;;;;5.75;5.75;;;;;17.31;80.29;101494.63;4991053;28;45238;-72
2021/09/20 05:23:18;;;;;;;;;9.00;6.50;;;;;17.31;80.37;101497.28;4990979;28;45514;-71
2021/09/20 05:25:44;;;;;;;;;6.50;5.00;;;;;17.24;80.55;101502.09;4986590;28;45405;-72
2021/09/20 05:28:09;;;;;;;;;5.50;5.00;;;;;17.25;80.61;101501.16;4984204;28;45489;-72
2021/09/20 05:30:35;;;;;;;;;5.75;4.50;;;;;17.22;80.67;101506.63;4989321;28;45533;-71
2021/09/20 05:33:01;;;;;;;;;7.25;6.00;;;;;17.04;80.88;101484.66;4993074;28;45380;-71
2021/09/20 05:35:26;;;;;;;;;8.00;6.25;;;;;17.16;80.80;101504.34;4987289;28;46088;-71
2021/09/20 05:37:52;;;;;;;;;6.50;6.50;;;;;17.09;80.98;101495.03;4996571;28;45706;-71
2021/09/20 05:40:18;;;;;;;;;8.25;7.50;;;;;17.15;80.89;101508.78;4983282;28;45404;-71
2021/09/20 05:42:44;;;;;;;;;9.75;7.50;;;;;17.16;81.18;101507.00;4989639;28;45349;-71
2021/09/20 05:45:11;;;;;;;;;6.25;5.50;;;;;17.07;81.21;101484.50;4986529;28;46191;-71
2021/09/20 05:47:36;;;;;;;;;6.00;6.00;;;;;17.19;81.21;101501.50;4989961;28;45849;-71
2021/09/20 05:50:04;;;;;;;;;10.00;8.00;;;;;17.24;81.06;101507.41;4992908;28;45538;-72
2021/09/20 05:52:29;;;;;;;;;8.25;6.75;;;;;17.22;81.32;101509.28;4991776;28;45638;-72
2021/09/20 05:54:54;;;;;;;;;10.00;7.50;;;;;17.26;80.80;101512.63;4986824;28;46493;-72
2021/09/20 05:57:20;;;;;;;;;11.00;9.00;;;;;17.29;81.00;101507.16;4991595;28;45384;-71
2021/09/20 05:59:45;;;;;;;;;6.75;6.25;;;;;17.32;81.17;101515.78;4984468;28;45400;-71
2021/09/20 06:02:11;;;;;;;;;9.50;6.75;;;;;17.30;80.84;101511.50;4986263;28;45515;-71
2021/09/20 06:04:36;;;;;;;;;8.75;7.25;;;;;17.32;81.15;101509.59;4989243;28;46168;-71
2021/09/20 06:07:02;;;;;;;;;10.75;7.75;;;;;17.41;81.33;101519.69;4992955;28;45495;-72
2021/09/20 06:09:27;;;;;;;;;7.25;7.25;;;;;17.40;81.11;101513.53;4988632;28;45413;-71
2021/09/20 06:11:52;;;;;;;;;9.75;9.50;;;;;17.44;81.14;101511.56;4986431;28;45495;-72
2021/09/20 06:14:18;;;;;;;;;8.00;7.25;;;;;17.51;81.60;101510.22;4993121;28;49486;-71
2021/09/20 06:16:43;;;;;;;;;9.00;7.00;;;;;17.56;80.60;101520.59;4992385;28;45467;-71
2021/09/20 06:19:09;;;;;;;;;9.00;7.50;;;;;17.64;81.17;101520.97;4991973;28;45496;-71
2021/09/20 06:21:34;;;;;;;;;6.50;6.50;;;;;17.66;81.23;101519.09;4990557;28;48098;-71
2021/09/20 06:23:59;;;;;;;;;7.25;6.00;;;;;17.70;80.84;101518.81;4982329;28;46013;-72
2021/09/20 06:26:25;;;;;;;;;7.75;6.00;;;;;17.77;81.00;101524.66;4989165;28;45401;-72
2021/09/20 06:28:50;;;;;;;;;7.75;7.75;;;;;17.87;80.60;101531.13;4985355;28;45517;-71
2021/09/20 06:31:16;;;;;;;;;8.00;7.00;;;;;17.96;80.84;101537.69;4990596;28;45480;-71
2021/09/20 06:33:41;;;;;;;;;11.25;10.00;;;;;18.04;80.40;101539.88;4987323;28;46157;-71
2021/09/20 06:36:06;;;;;;;;;9.75;8.00;;;;;18.11;80.33;101541.19;4992597;28;45302;-71
2021/09/20 06:38:32;;;;;;;;;9.75;9.00;;;;;18.19;80.13;101538.94;4987447;28;45440;-71
2021/09/20 06:40:57;;;;;;;;;10.00;8.50;;;;;18.28;80.30;101543.69;4991873;28;45744;-71
2021/09/20 06:43:23;;;;;;;;;9.25;8.00;;;;;18.35;79.86;101542.34;4988765;28;45641;-71
2021/09/20 06:45:48;;;;;;;;;8.50;7.00;;;;;18.48;80.19;101548.59;4992116;28;45383;-71
2021/09/20 06:48:13;;;;;;;;;10.50;10.00;;;;;18.51;79.73;101551.06;4987547;28;45534;-71
2021/09/20 06:50:39;;;;;;;;;14.50;9.25;;;;;18.50;79.31;101532.53;4991300;28;45505;-71
2021/09/20 06:53:05;;;;;;;;;11.00;9.00;;;;;18.64;79.60;101555.63;4988276;28;46519;-71
2021/09/20 06:55:30;;;;;;;;;12.25;11.00;;;;;18.68;79.53;101552.69;4979512;28;45613;-71
2021/09/20 06:57:59;;;;;;;;;9.00;9.00;;;;;18.78;79.24;101561.78;4988886;28;45601;-71
2021/09/20 07:00:28;;;;;;;;;14.00;11.00;;;;;18.83;78.93;101560.63;4976176;28;45389;-71
2021/09/20 07:02:55;;;;;;;;;11.00;9.00;;;;;18.86;79.29;101560.47;4990680;28;46263;-71
2021/09/20 07:05:20;;;;;;;;;15.25;10.25;;;;;18.92;78.74;101568.03;4989359;28;45804;-71
2021/09/20 07:07:46;;;;;;;;;9.25;8.00;;;;;18.97;79.21;101564.13;4985851;28;45446;-71
2021/09/20 07:10:12;;;;;;;;;10.25;9.25;;;;;19.04;79.36;101567.22;4989359;28;45371;-71
2021/09/20 07:12:38;;;;;;;;;11.50;10.25;;;;;19.11;78.30;101562.38;4989750;28;45954;-71
2021/09/20 07:15:04;;;;;;;;;11.25;10.75;;;;;19.21;78.48;101572.34;4983949;28;45627;-72
2021/09/20 07:17:30;;;;;;;;;14.25;11.00;;;;;19.28;78.43;101573.63;5001647;28;45829;-72
2021/09/20 07:19:55;;;;;;;;;14.00;11.00;;;;;19.28;78.20;101576.28;4988037;28;45799;-71
2021/09/20 07:22:21;;;;;;;;;18.75;13.25;;;;;19.29;77.80;101575.34;4984180;28;46281;-72
2021/09/20 07:24:46;;;;;;;;;13.25;11.00;;;;;19.28;77.97;101572.78;4982872;28;47550;-71
2021/09/20 07:27:12;;;;;;;;;14.25;12.50;;;;;19.30;78.04;101582.38;4987892;28;46631;-71
2021/09/20 07:29:37;;;;;;;;;14.75;13.00;;;;;19.28;77.86;101578.09;4981172;28;45495;-71
2021/09/20 07:32:03;;;;;;;;;55.00;45.00;;;;;19.33;77.28;101586.66;4982362;28;45565;-71
2021/09/20 07:34:29;;;;;;;;;57.50;44.75;;;;;19.35;77.64;101575.88;4985901;28;45530;-71
2021/09/20 07:36:54;;;;;;;;;17.00;14.00;;;;;19.42;77.62;101572.72;4986507;28;45692;-71
2021/09/20 07:39:19;;;;;;;;;19.75;17.25;;;;;19.51;77.84;101580.09;4981465;28;45476;-71
2021/09/20 07:41:45;;;;;;;;;19.25;15.75;;;;;19.59;77.50;101581.41;4983444;28;47020;-71
2021/09/20 07:44:10;;;;;;;;;14.25;14.25;;;;;19.67;77.41;101581.75;4984597;28;45859;-72
2021/09/20 07:46:37;;;;;;;;;19.25;15.00;;;;;19.70;76.92;101579.75;4986226;28;45502;-71
2021/09/20 07:49:02;;;;;;;;;15.75;15.00;;;;;19.72;76.79;101580.47;4990582;28;45847;-72
2021/09/20 07:51:28;;;;;;;;;21.00;17.00;;;;;19.72;76.80;101582.28;4990930;28;46301;-71
2021/09/20 07:53:53;;;;;;;;;19.50;15.00;;;;;19.80;77.33;101595.97;4991498;28;45448;-72
2021/09/20 07:56:19;;;;;;;;;20.50;19.50;;;;;19.94;76.96;101585.22;4990082;28;45895;-71
2021/09/20 07:58:44;;;;;;;;;20.00;20.00;;;;;20.14;76.82;101588.31;4991359;28;45479;-71
2021/09/20 08:01:09;;;;;;;;;19.00;17.75;;;;;20.38;76.72;101586.59;4990795;28;45893;-72
2021/09/20 08:03:35;;;;;;;;;17.75;17.25;;;;;20.80;75.76;101588.03;4981123;28;45558;-71
2021/09/20 08:06:00;;;;;;;;;20.25;18.25;;;;;21.30;75.64;101591.53;4991614;28;45466;-71
2021/09/20 08:08:26;;;;;;;;;203.50;170.75;;;;;21.88;73.96;101581.75;4990022;28;45495;-71
2021/09/20 08:10:51;;;;;;;;;15.75;10.75;;;;;22.52;73.16;101593.78;4990441;28;45562;-72
2021/09/20 08:13:17;;;;;;;;;22.00;17.50;;;;;23.04;72.21;101589.59;5003723;28;45519;-71
2021/09/20 08:15:44;;;;;;;;;16.00;13.50;;;;;23.68;70.98;101593.13;4982173;28;45497;-71
2021/09/20 08:18:11;;;;;;;;;16.00;13.00;;;;;23.88;68.64;101594.13;4985153;28;45466;-71
2021/09/20 08:20:37;;;;;;;;;14.50;13.00;;;;;23.75;68.46;101598.81;4990749;28;46186;-71
2021/09/20 08:23:03;;;;;;;;;12.75;12.75;;;;;23.51;67.54;101612.47;4992535;28;45521;-71
2021/09/20 08:25:31;;;;;;;;;18.50;14.75;;;;;23.15;68.10;101606.50;4994156;28;45349;-71
2021/09/20 08:27:57;;;;;;;;;16.25;14.75;;;;;22.91;68.40;101612.00;4992721;28;45633;-71
2021/09/20 08:30:22;;;;;;;;;14.00;11.00;;;;;22.81;68.65;101612.84;4994420;28;45739;-71
2021/09/20 08:32:49;;;;;;;;;17.50;13.25;;;;;22.76;68.77;101617.72;4993894;28;45457;-71
2021/09/20 08:35:14;;;;;;;;;12.25;12.25;;;;;22.58;68.66;101620.91;4994203;28;45590;-71
2021/09/20 08:37:40;;;;;;;;;16.75;13.75;;;;;22.37;69.42;101615.44;4993392;28;45612;-71
2021/09/20 08:40:06;;;;;;;;;16.75;12.75;;;;;22.17;69.10;101629.53;4994019;28;45414;-71
2021/09/20 08:42:36;;;;;;;;;15.75;13.50;;;;;22.00;70.11;101616.56;4994418;28;45424;-71
2021/09/20 08:45:07;;;;;;;;;16.00;15.00;;;;;21.90;70.15;101619.09;4993049;28;45520;-71
2021/09/20 08:47:32;;;;;;;;;16.00;12.75;;;;;21.81;70.70;101619.78;4993740;28;45424;-71
2021/09/20 08:49:58;;;;;;;;;15.25;11.25;;;;;21.79;70.59;101625.28;4993224;28;45581;-71
2021/09/20 08:52:23;;;;;;;;;13.50;10.25;;;;;21.81;70.33;101622.47;4990012;28;45479;-71
2021/09/20 08:54:51;;;;;;;;;15.00;14.50;;;;;21.87;71.17;101635.38;4992154;28;45578;-71
2021/09/20 08:57:18;;;;;;;;;15.25;11.25;;;;;21.99;70.71;101636.28;4983229;28;45622;-71
2021/09/20 08:59:43;;;;;;;;;17.25;11.75;;;;;22.12;70.06;101637.91;4994326;28;46761;-71
2021/09/20 09:02:14;;;;;;;;;12.25;10.25;;;;;22.11;68.80;101636.22;4986070;28;45481;-71
2021/09/20 09:04:40;;;;;;;;;12.50;11.25;;;;;21.96;68.72;101634.69;4993828;28;45435;-71
2021/09/20 09:07:15;;;;;;;;;12.75;12.00;;;;;21.97;69.44;101640.88;4993446;28;45392;-72
2021/09/20 09:09:40;;;;;;;;;34.75;28.75;;;;;22.01;69.22;101645.03;4993032;28;46517;-71
2021/09/20 09:12:30;;;;;;;;;14.75;12.50;;;;;21.89;68.85;101650.34;4992575;28;45443;-71
2021/09/20 09:14:58;;;;;;;;;14.00;12.75;;;;;21.77;69.69;101648.63;4982404;28;45525;-71
2021/09/20 09:17:27;;;;;;;;;11.00;9.25;;;;;21.67;69.24;101652.97;4989842;28;45473;-71
2021/09/20 09:19:56;;;;;;;;;13.50;11.25;;;;;21.65;69.51;101649.53;4992033;28;45450;-71
2021/09/20 09:22:24;;;;;;;;;8.25;8.00;;;;;21.62;69.57;101655.13;4992043;28;45686;-71
2021/09/20 09:25:01;;;;;;;;;15.25;10.25;;;;;21.74;69.50;101664.03;4977938;28;45329;-71
2021/09/20 09:27:27;;;;;;;;;14.25;9.50;;;;;21.95;70.10;101659.75;4990434;28;45497;-71
2021/09/20 09:30:12;;;;;;;;;11.75;11.00;;;;;22.21;69.61;101654.25;4993325;28;45600;-71
2021/09/20 09:32:39;;;;;;;;;11.75;9.25;;;;;22.36;68.60;101661.09;4992346;28;45501;-71
2021/09/20 09:35:07;;;;;;;;;11.75;9.00;;;;;22.33;67.57;101666.66;4992957;28;45488;-71
2021/09/20 09:37:35;;;;;;;;;12.00;10.00;;;;;22.25;67.50;101661.06;4992914;28;45420;-71
2021/09/20 09:40:20;;;;;;;;;14.50;10.00;;;;;22.26;68.05;101670.81;4993478;28;46308;-71
2021/09/20 09:42:46;;;;;;;;;11.75;10.00;;;;;22.12;68.09;101667.34;4992968;28;45833;-71
2021/09/20 09:45:22;;;;;;;;;14.75;9.00;;;;;22.02;68.30;101663.66;4993748;28;45552;-71
2021/09/20 09:47:50;;;;;;;;;12.00;8.75;;;;;21.99;68.18;101669.25;4993112;28;45692;-71
2021/09/20 09:50:17;;;;;;;;;13.75;10.75;;;;;21.91;67.85;101674.31;4991885;28;46891;-71
2021/09/20 09:52:45;;;;;;;;;8.75;8.75;;;;;21.86;68.57;101671.13;4993160;28;45721;-71
2021/09/20 09:55:11;;;;;;;;;14.25;10.50;;;;;21.82;68.45;101680.34;4993314;28;45419;-71
2021/09/20 09:57:37;;;;;;;;;10.00;10.00;;;;;21.82;68.68;101675.00;4992898;28;45774;-71
2021/09/20 10:00:14;;;;;;;;;11.25;9.75;;;;;21.86;68.48;101669.31;4992648;28;46977;-71
2021/09/20 10:02:45;;;;;;;;;15.50;15.25;;;;;21.95;68.36;101672.28;4981186;28;45790;-71
2021/09/20 10:05:16;;;;;;;;;9.50;9.50;;;;;22.00;69.23;101665.59;4987564;28;45474;-71
2021/09/20 10:07:43;;;;;;;;;13.75;10.00;;;;;22.13;68.18;101671.75;4989057;28;45622;-71
2021/09/20 10:10:16;;;;;;;;;11.25;9.25;;;;;22.19;68.60;101673.13;4992691;28;46352;-71
2021/09/20 10:12:44;;;;;;;;;8.75;8.25;;;;;22.18;68.85;101657.16;4992620;28;45510;-71
2021/09/20 10:15:13;;;;;;;;;12.50;9.00;;;;;22.28;68.62;101660.81;4993129;28;45566;-71
2021/09/20 10:17:39;;;;;;;;;12.50;10.00;;;;;22.33;69.08;101664.00;4992253;28;45553;-71
2021/09/20 10:20:08;;;;;;;;;13.75;11.25;;;;;22.44;68.17;101666.69;4992341;28;45571;-71
2021/09/20 10:22:34;;;;;;;;;10.50;9.00;;;;;22.47;68.03;101671.81;4981589;28;45830;-71
2021/09/20 10:25:03;;;;;;;;;9.00;8.25;;;;;22.42;68.42;101663.28;4972859;28;49064;-71
2021/09/20 10:27:30;;;;;;;;;12.25;10.50;;;;;22.49;67.76;101671.69;4991992;28;45563;-71
2021/09/20 10:30:01;;;;;;;;;13.00;10.50;;;;;22.49;68.07;101675.22;4992686;28;47446;-71
2021/09/20 10:32:29;;;;;;;;;11.25;9.50;;;;;22.51;67.81;101665.25;4991629;28;45562;-71
2021/09/20 10:35:22;;;;;;;;;12.25;10.25;;;;;22.55;67.95;101672.06;4992244;28;45451;-71
2021/09/20 10:37:48;;;;;;;;;13.00;9.00;;;;;22.56;68.11;101670.25;4991865;28;45357;-71
2021/09/20 10:40:14;;;;;;;;;10.75;10.00;;;;;22.53;67.72;101676.69;4991953;28;45532;-71
2021/09/20 10:42:46;;;;;;;;;11.75;9.75;;;;;22.51;68.25;101673.28;4986489;28;45422;-71
2021/09/20 10:45:46;;;;;;;;;13.50;9.75;;;;;22.43;68.27;101674.84;4994565;28;45482;-72
2021/09/20 10:48:30;;;;;;;;;11.25;11.25;;;;;22.33;68.20;101672.88;4990310;28;45574;-71
2021/09/20 10:50:55;;;;;;;;;11.25;11.25;;;;;22.28;68.71;101674.22;4991320;28;46183;-71
2021/09/20 10:53:34;;;;;;;;;19.75;13.25;;;;;22.24;68.51;101684.31;4983870;28;45482;-71
2021/09/20 10:56:02;;;;;;;;;14.00;11.00;;;;;22.27;68.82;101686.75;4985534;28;45838;-70
2021/09/20 10:58:40;;;;;;;;;17.25;12.75;;;;;22.24;68.50;101667.38;4983229;28;46045;-71
2021/09/20 11:01:12;;;;;;;;;14.00;12.00;;;;;22.45;68.65;101684.47;4983227;28;46450;-71
2021/09/20 11:03:41;;;;;;;;;14.25;14.00;;;;;22.55;67.51;101677.44;4991544;28;45348;-71
2021/09/20 11:06:21;;;;;;;;;13.00;10.00;;;;;22.72;67.81;101676.09;4992550;28;45498;-71
2021/09/20 11:09:08;;;;;;;;;12.75;12.75;;;;;22.86;67.60;101673.16;4991791;28;45980;-71
2021/09/20 11:11:42;;;;;;;;;15.75;11.25;;;;;23.02;67.48;101678.19;4986549;28;46605;-71
2021/09/20 11:14:10;;;;;;;;;16.50;14.00;;;;;23.03;66.13;101673.69;4986497;28;45704;-72
2021/09/20 11:16:48;;;;;;;;;12.75;10.50;;;;;23.06;65.53;101685.00;4983779;28;45557;-71